sensor_id;sensor_type;location;lat;lon;timestamp;temperature;humidity
3268;DHT22;1646;52.450;13.326;2023-07-20T00:00:18;18.30;99.90
3268;DHT22;1646;52.450;13.326;2023-07-20T00:05:17;18.20;99.90
3268;DHT22;1646;52.450;13.326;2023-07-20T00:10:19;18.20;99.90
3268;DHT22;1646;52.450;13.326;2023-07-20T00:15:17;18.20;99.90
3268;DHT22;1646;52.450;13.326;2023-07-20T00:20:16;18.20;99.90
3268;DHT22;1646;52.450;13.326;2023-07-20T00:25:14;18.20;99.90
3268;DHT22;1646;52.450;13.326;2023-07-20T00:30:14;18.20;99.90
3268;DHT22;1646;52.450;13.326;2023-07-20T00:35:13;18.20;99.90
3268;DHT22;1646;52.450;13.326;2023-07-20T00:40:12;18.10;99.90
3268;DHT22;1646;52.450;13.326;2023-07-20T00:45:10;18.10;99.90
3268;DHT22;1646;52.450;13.326;2023-07-20T00:50:10;18.10;99.90
3268;DHT22;1646;52.450;13.326;2023-07-20T00:55:09;18.00;99.90
3268;DHT22;1646;52.450;13.326;2023-07-20T01:00:08;17.90;99.90
3268;DHT22;1646;52.450;13.326;2023-07-20T01:05:07;17.90;99.90
3268;DHT22;1646;52.450;13.326;2023-07-20T01:10:12;17.80;99.90
3268;DHT22;1646;52.450;13.326;2023-07-20T01:15:11;17.70;99.90
3268;DHT22;1646;52.450;13.326;2023-07-20T01:20:28;17.70;99.90
3268;DHT22;1646;52.450;13.326;2023-07-20T01:25:42;17.60;99.90
3268;DHT22;1646;52.450;13.326;2023-07-20T01:30:52;17.50;99.90
3268;DHT22;1646;52.450;13.326;2023-07-20T01:35:57;17.60;99.90
3268;DHT22;1646;52.450;13.326;2023-07-20T01:40:58;17.60;99.90
3268;DHT22;1646;52.450;13.326;2023-07-20T01:45:56;17.50;99.90
3268;DHT22;1646;52.450;13.326;2023-07-20T01:50:56;17.50;99.90
3268;DHT22;1646;52.450;13.326;2023-07-20T01:55:54;17.40;99.90
3268;DHT22;1646;52.450;13.326;2023-07-20T02:00:52;17.40;99.90
3268;DHT22;1646;52.450;13.326;2023-07-20T02:05:51;17.50;99.90
3268;DHT22;1646;52.450;13.326;2023-07-20T02:10:51;17.40;99.90
3268;DHT22;1646;52.450;13.326;2023-07-20T02:15:49;17.40;99.90
3268;DHT22;1646;52.450;13.326;2023-07-20T02:20:48;17.40;99.90
3268;DHT22;1646;52.450;13.326;2023-07-20T02:25:46;17.50;99.90
3268;DHT22;1646;52.450;13.326;2023-07-20T02:30:47;17.60;99.90
3268;DHT22;1646;52.450;13.326;2023-07-20T02:35:47;17.60;99.90
3268;DHT22;1646;52.450;13.326;2023-07-20T02:40:45;17.50;99.90
3268;DHT22;1646;52.450;13.326;2023-07-20T02:45:43;17.50;99.90
3268;DHT22;1646;52.450;13.326;2023-07-20T02:50:45;17.50;99.90
3268;DHT22;1646;52.450;13.326;2023-07-20T02:55:43;17.40;99.90
3268;DHT22;1646;52.450;13.326;2023-07-20T03:00:42;17.30;99.90
3268;DHT22;1646;52.450;13.326;2023-07-20T03:05:41;17.30;99.90
3268;DHT22;1646;52.450;13.326;2023-07-20T03:10:41;17.40;99.90
3268;DHT22;1646;52.450;13.326;2023-07-20T03:15:39;17.30;99.90
3268;DHT22;1646;52.450;13.326;2023-07-20T03:20:38;17.30;99.90
3268;DHT22;1646;52.450;13.326;2023-07-20T03:25:37;17.30;99.90
3268;DHT22;1646;52.450;13.326;2023-07-20T03:30:38;17.40;99.90
3268;DHT22;1646;52.450;13.326;2023-07-20T03:35:38;17.40;99.90
3268;DHT22;1646;52.450;13.326;2023-07-20T03:40:36;17.40;99.90
3268;DHT22;1646;52.450;13.326;2023-07-20T03:45:34;17.40;99.90
3268;DHT22;1646;52.450;13.326;2023-07-20T03:50:35;17.30;99.90
3268;DHT22;1646;52.450;13.326;2023-07-20T03:55:33;17.20;99.90
3268;DHT22;1646;52.450;13.326;2023-07-20T04:00:31;17.10;99.90
3268;DHT22;1646;52.450;13.326;2023-07-20T04:05:29;17.10;99.90
3268;DHT22;1646;52.450;13.326;2023-07-20T04:10:29;17.10;99.90
3268;DHT22;1646;52.450;13.326;2023-07-20T04:15:27;17.00;99.90
3268;DHT22;1646;52.450;13.326;2023-07-20T04:20:26;17.00;99.90
3268;DHT22;1646;52.450;13.326;2023-07-20T04:25:24;17.00;99.90
3268;DHT22;1646;52.450;13.326;2023-07-20T04:30:24;17.10;99.90
3268;DHT22;1646;52.450;13.326;2023-07-20T04:35:50;17.20;99.90
3268;DHT22;1646;52.450;13.326;2023-07-20T04:40:59;17.30;99.90
3268;DHT22;1646;52.450;13.326;2023-07-20T04:46:01;17.40;99.90
3268;DHT22;1646;52.450;13.326;2023-07-20T04:51:02;17.40;99.90
3268;DHT22;1646;52.450;13.326;2023-07-20T04:56:01;17.50;99.90
3268;DHT22;1646;52.450;13.326;2023-07-20T05:01:00;17.40;99.90
3268;DHT22;1646;52.450;13.326;2023-07-20T05:06:00;17.40;99.90
3268;DHT22;1646;52.450;13.326;2023-07-20T05:10:59;17.40;99.90
3268;DHT22;1646;52.450;13.326;2023-07-20T05:15:58;17.40;99.90
3268;DHT22;1646;52.450;13.326;2023-07-20T05:20:58;17.50;99.90
3268;DHT22;1646;52.450;13.326;2023-07-20T05:25:56;17.50;99.90
3268;DHT22;1646;52.450;13.326;2023-07-20T05:30:55;17.70;99.90
3268;DHT22;1646;52.450;13.326;2023-07-20T05:35:53;17.80;99.90
3268;DHT22;1646;52.450;13.326;2023-07-20T05:40:59;18.00;99.90
3268;DHT22;1646;52.450;13.326;2023-07-20T05:45:58;18.00;99.90
3268;DHT22;1646;52.450;13.326;2023-07-20T05:50:57;18.20;99.90
3268;DHT22;1646;52.450;13.326;2023-07-20T05:55:57;18.20;99.90
3268;DHT22;1646;52.450;13.326;2023-07-20T06:00:55;18.10;99.90
3268;DHT22;1646;52.450;13.326;2023-07-20T06:05:58;18.10;99.90
3268;DHT22;1646;52.450;13.326;2023-07-20T06:10:59;18.00;99.90
3268;DHT22;1646;52.450;13.326;2023-07-20T06:15:58;17.90;99.90
3268;DHT22;1646;52.450;13.326;2023-07-20T06:20:56;17.80;99.90
3268;DHT22;1646;52.450;13.326;2023-07-20T06:25:55;17.80;99.90
3268;DHT22;1646;52.450;13.326;2023-07-20T06:31:00;17.80;99.90
3268;DHT22;1646;52.450;13.326;2023-07-20T06:35:58;17.80;99.90
3268;DHT22;1646;52.450;13.326;2023-07-20T06:40:57;18.00;99.90
3268;DHT22;1646;52.450;13.326;2023-07-20T06:46:17;18.00;99.90
3268;DHT22;1646;52.450;13.326;2023-07-20T06:51:16;18.10;99.90
3268;DHT22;1646;52.450;13.326;2023-07-20T06:56:14;18.10;99.90
3268;DHT22;1646;52.450;13.326;2023-07-20T07:01:13;18.20;99.90
3268;DHT22;1646;52.450;13.326;2023-07-20T07:06:14;18.30;99.90
3268;DHT22;1646;52.450;13.326;2023-07-20T07:11:12;18.50;99.90
3268;DHT22;1646;52.450;13.326;2023-07-20T07:16:10;18.70;99.90
3268;DHT22;1646;52.450;13.326;2023-07-20T07:21:09;18.70;99.90
3268;DHT22;1646;52.450;13.326;2023-07-20T07:26:08;18.70;99.90
3268;DHT22;1646;52.450;13.326;2023-07-20T07:31:07;19.10;99.90
3268;DHT22;1646;52.450;13.326;2023-07-20T07:36:05;19.40;99.90
3268;DHT22;1646;52.450;13.326;2023-07-20T07:41:03;19.40;99.90
3268;DHT22;1646;52.450;13.326;2023-07-20T07:46:03;19.30;99.90
3268;DHT22;1646;52.450;13.326;2023-07-20T07:51:01;19.10;99.90
3268;DHT22;1646;52.450;13.326;2023-07-20T07:56:00;19.30;99.90
3268;DHT22;1646;52.450;13.326;2023-07-20T08:01:00;19.90;99.90
3268;DHT22;1646;52.450;13.326;2023-07-20T08:06:00;20.10;99.90
3268;DHT22;1646;52.450;13.326;2023-07-20T08:11:01;20.60;99.90
3268;DHT22;1646;52.450;13.326;2023-07-20T08:16:08;20.30;99.90
3268;DHT22;1646;52.450;13.326;2023-07-20T08:21:07;19.90;99.90
3268;DHT22;1646;52.450;13.326;2023-07-20T08:26:05;19.70;99.90
3268;DHT22;1646;52.450;13.326;2023-07-20T08:31:05;19.60;99.90
3268;DHT22;1646;52.450;13.326;2023-07-20T08:36:04;20.00;99.90
3268;DHT22;1646;52.450;13.326;2023-07-20T08:41:09;19.90;99.90
3268;DHT22;1646;52.450;13.326;2023-07-20T08:46:07;20.10;99.90
3268;DHT22;1646;52.450;13.326;2023-07-20T08:51:06;20.50;99.90
3268;DHT22;1646;52.450;13.326;2023-07-20T08:56:05;21.10;99.90
3268;DHT22;1646;52.450;13.326;2023-07-20T09:01:06;21.10;99.90
3268;DHT22;1646;52.450;13.326;2023-07-20T09:06:22;20.70;99.90
3268;DHT22;1646;52.450;13.326;2023-07-20T09:11:23;20.70;99.90
3268;DHT22;1646;52.450;13.326;2023-07-20T09:16:23;20.70;99.90
3268;DHT22;1646;52.450;13.326;2023-07-20T09:21:22;20.80;99.90
3268;DHT22;1646;52.450;13.326;2023-07-20T09:26:20;21.00;99.90
3268;DHT22;1646;52.450;13.326;2023-07-20T09:31:20;21.60;99.90
3268;DHT22;1646;52.450;13.326;2023-07-20T09:36:20;21.70;99.90
3268;DHT22;1646;52.450;13.326;2023-07-20T09:41:42;21.90;99.90
3268;DHT22;1646;52.450;13.326;2023-07-20T09:46:44;21.80;99.90
3268;DHT22;1646;52.450;13.326;2023-07-20T09:51:47;21.50;99.90
3268;DHT22;1646;52.450;13.326;2023-07-20T09:56:47;21.40;99.90
3268;DHT22;1646;52.450;13.326;2023-07-20T10:01:47;21.00;99.90
3268;DHT22;1646;52.450;13.326;2023-07-20T10:06:49;20.60;99.90
3268;DHT22;1646;52.450;13.326;2023-07-20T10:11:50;20.20;99.90
3268;DHT22;1646;52.450;13.326;2023-07-20T10:17:11;19.90;99.90
3268;DHT22;1646;52.450;13.326;2023-07-20T10:22:14;20.10;99.90
3268;DHT22;1646;52.450;13.326;2023-07-20T10:27:13;20.50;99.90
3268;DHT22;1646;52.450;13.326;2023-07-20T10:32:12;20.70;99.90
3268;DHT22;1646;52.450;13.326;2023-07-20T10:37:51;21.90;99.90
3268;DHT22;1646;52.450;13.326;2023-07-20T10:42:49;22.30;99.90
3268;DHT22;1646;52.450;13.326;2023-07-20T10:47:48;22.00;99.90
3268;DHT22;1646;52.450;13.326;2023-07-20T10:53:04;21.70;99.90
3268;DHT22;1646;52.450;13.326;2023-07-20T10:58:10;21.50;99.90
3268;DHT22;1646;52.450;13.326;2023-07-20T11:03:09;21.30;99.90
3268;DHT22;1646;52.450;13.326;2023-07-20T11:08:12;21.10;99.90
3268;DHT22;1646;52.450;13.326;2023-07-20T11:13:18;21.40;99.90
3268;DHT22;1646;52.450;13.326;2023-07-20T11:18:16;21.60;99.90
3268;DHT22;1646;52.450;13.326;2023-07-20T11:23:17;21.60;99.90
3268;DHT22;1646;52.450;13.326;2023-07-20T11:28:17;21.30;99.90
3268;DHT22;1646;52.450;13.326;2023-07-20T11:33:15;21.10;99.90
3268;DHT22;1646;52.450;13.326;2023-07-20T11:38:14;20.90;99.90
3268;DHT22;1646;52.450;13.326;2023-07-20T11:43:14;20.90;99.90
3268;DHT22;1646;52.450;13.326;2023-07-20T11:48:15;21.00;99.90
3268;DHT22;1646;52.450;13.326;2023-07-20T11:53:14;21.20;99.90
3268;DHT22;1646;52.450;13.326;2023-07-20T11:58:15;22.00;99.90
3268;DHT22;1646;52.450;13.326;2023-07-20T12:03:14;22.30;99.90
3268;DHT22;1646;52.450;13.326;2023-07-20T12:08:12;22.80;99.90
3268;DHT22;1646;52.450;13.326;2023-07-20T12:13:11;22.90;99.90
3268;DHT22;1646;52.450;13.326;2023-07-20T12:18:11;23.00;99.90
3268;DHT22;1646;52.450;13.326;2023-07-20T12:23:11;22.70;99.90
3268;DHT22;1646;52.450;13.326;2023-07-20T12:28:11;22.10;99.90
3268;DHT22;1646;52.450;13.326;2023-07-20T12:33:12;21.70;99.90
3268;DHT22;1646;52.450;13.326;2023-07-20T12:38:13;21.70;99.90
3268;DHT22;1646;52.450;13.326;2023-07-20T12:43:11;21.80;99.90
3268;DHT22;1646;52.450;13.326;2023-07-20T12:48:09;21.90;99.90
3268;DHT22;1646;52.450;13.326;2023-07-20T12:53:09;22.70;99.90
3268;DHT22;1646;52.450;13.326;2023-07-20T12:58:08;23.50;99.90
3268;DHT22;1646;52.450;13.326;2023-07-20T13:03:06;23.60;99.90
3268;DHT22;1646;52.450;13.326;2023-07-20T13:08:06;24.00;99.90
3268;DHT22;1646;52.450;13.326;2023-07-20T13:13:09;24.60;99.90
3268;DHT22;1646;52.450;13.326;2023-07-20T13:18:07;24.50;99.90
3268;DHT22;1646;52.450;13.326;2023-07-20T13:23:05;24.00;99.90
3268;DHT22;1646;52.450;13.326;2023-07-20T13:28:05;24.20;99.90
3268;DHT22;1646;52.450;13.326;2023-07-20T13:33:04;24.40;99.90
3268;DHT22;1646;52.450;13.326;2023-07-20T13:38:03;24.50;98.10
3268;DHT22;1646;52.450;13.326;2023-07-20T13:43:02;24.30;98.20
3268;DHT22;1646;52.450;13.326;2023-07-20T13:48:03;24.70;97.20
3268;DHT22;1646;52.450;13.326;2023-07-20T13:53:03;24.80;96.20
3268;DHT22;1646;52.450;13.326;2023-07-20T13:58:04;24.90;95.10
3268;DHT22;1646;52.450;13.326;2023-07-20T14:03:04;24.10;94.80
3268;DHT22;1646;52.450;13.326;2023-07-20T14:08:05;23.70;96.00
3268;DHT22;1646;52.450;13.326;2023-07-20T14:13:03;24.10;95.80
3268;DHT22;1646;52.450;13.326;2023-07-20T14:18:03;24.60;94.30
3268;DHT22;1646;52.450;13.326;2023-07-20T14:23:02;25.10;93.90
3268;DHT22;1646;52.450;13.326;2023-07-20T14:28:00;25.00;93.10
3268;DHT22;1646;52.450;13.326;2023-07-20T14:32:58;25.00;92.90
3268;DHT22;1646;52.450;13.326;2023-07-20T14:37:58;25.20;91.90
3268;DHT22;1646;52.450;13.326;2023-07-20T14:42:56;25.00;90.80
3268;DHT22;1646;52.450;13.326;2023-07-20T14:47:55;25.10;91.60
3268;DHT22;1646;52.450;13.326;2023-07-20T14:52:53;25.40;87.50
3268;DHT22;1646;52.450;13.326;2023-07-20T14:57:53;25.20;85.90
3268;DHT22;1646;52.450;13.326;2023-07-20T15:02:51;25.20;87.30
3268;DHT22;1646;52.450;13.326;2023-07-20T15:07:53;25.60;86.10
3268;DHT22;1646;52.450;13.326;2023-07-20T15:12:53;25.70;82.80
3268;DHT22;1646;52.450;13.326;2023-07-20T15:17:51;25.10;81.80
3268;DHT22;1646;52.450;13.326;2023-07-20T15:22:51;24.60;83.30
3268;DHT22;1646;52.450;13.326;2023-07-20T15:27:49;24.50;88.40
3268;DHT22;1646;52.450;13.326;2023-07-20T15:32:51;24.50;82.30
3268;DHT22;1646;52.450;13.326;2023-07-20T15:37:52;23.90;82.10
3268;DHT22;1646;52.450;13.326;2023-07-20T15:42:50;23.70;83.20
3268;DHT22;1646;52.450;13.326;2023-07-20T15:47:51;23.70;85.60
3268;DHT22;1646;52.450;13.326;2023-07-20T15:52:50;24.00;85.30
3268;DHT22;1646;52.450;13.326;2023-07-20T15:57:49;24.00;86.20
3268;DHT22;1646;52.450;13.326;2023-07-20T16:02:47;24.00;83.90
3268;DHT22;1646;52.450;13.326;2023-07-20T16:07:47;23.80;84.90
3268;DHT22;1646;52.450;13.326;2023-07-20T16:12:45;24.10;85.10
3268;DHT22;1646;52.450;13.326;2023-07-20T16:17:44;24.20;84.10
3268;DHT22;1646;52.450;13.326;2023-07-20T16:22:42;24.20;80.80
3268;DHT22;1646;52.450;13.326;2023-07-20T16:27:42;24.20;79.30
3268;DHT22;1646;52.450;13.326;2023-07-20T16:32:41;24.10;79.60
3268;DHT22;1646;52.450;13.326;2023-07-20T16:37:40;23.80;79.80
3268;DHT22;1646;52.450;13.326;2023-07-20T16:42:38;23.50;82.60
3268;DHT22;1646;52.450;13.326;2023-07-20T16:47:41;23.30;85.00
3268;DHT22;1646;52.450;13.326;2023-07-20T16:52:39;23.20;84.80
3268;DHT22;1646;52.450;13.326;2023-07-20T16:57:38;23.20;86.40
3268;DHT22;1646;52.450;13.326;2023-07-20T17:02:36;23.20;86.20
3268;DHT22;1646;52.450;13.326;2023-07-20T17:07:36;23.00;87.80
3268;DHT22;1646;52.450;13.326;2023-07-20T17:12:36;23.10;88.30
3268;DHT22;1646;52.450;13.326;2023-07-20T17:17:35;23.60;88.90
3268;DHT22;1646;52.450;13.326;2023-07-20T17:22:33;23.70;86.70
3268;DHT22;1646;52.450;13.326;2023-07-20T17:27:33;23.40;88.20
3268;DHT22;1646;52.450;13.326;2023-07-20T17:32:35;23.50;88.60
3268;DHT22;1646;52.450;13.326;2023-07-20T17:37:34;23.60;87.70
3268;DHT22;1646;52.450;13.326;2023-07-20T17:42:38;23.40;88.40
3268;DHT22;1646;52.450;13.326;2023-07-20T17:47:39;23.20;89.60
3268;DHT22;1646;52.450;13.326;2023-07-20T17:52:38;23.00;90.00
3268;DHT22;1646;52.450;13.326;2023-07-20T17:57:37;22.90;89.70
3268;DHT22;1646;52.450;13.326;2023-07-20T18:02:37;22.80;90.10
3268;DHT22;1646;52.450;13.326;2023-07-20T18:07:36;22.70;87.70
3268;DHT22;1646;52.450;13.326;2023-07-20T18:12:39;22.40;88.60
3268;DHT22;1646;52.450;13.326;2023-07-20T18:17:38;22.30;88.60
3268;DHT22;1646;52.450;13.326;2023-07-20T18:22:37;22.20;89.10
3268;DHT22;1646;52.450;13.326;2023-07-20T18:27:35;22.10;88.80
3268;DHT22;1646;52.450;13.326;2023-07-20T18:32:35;21.80;89.80
3268;DHT22;1646;52.450;13.326;2023-07-20T18:37:33;21.60;90.20
3268;DHT22;1646;52.450;13.326;2023-07-20T18:42:33;21.50;90.60
3268;DHT22;1646;52.450;13.326;2023-07-20T18:47:32;21.50;90.90
3268;DHT22;1646;52.450;13.326;2023-07-20T18:52:33;21.40;91.40
3268;DHT22;1646;52.450;13.326;2023-07-20T18:57:31;21.30;91.60
3268;DHT22;1646;52.450;13.326;2023-07-20T19:02:30;21.30;91.60
3268;DHT22;1646;52.450;13.326;2023-07-20T19:07:28;21.30;91.70
3268;DHT22;1646;52.450;13.326;2023-07-20T19:12:28;21.20;92.50
3268;DHT22;1646;52.450;13.326;2023-07-20T19:17:27;21.20;92.20
3268;DHT22;1646;52.450;13.326;2023-07-20T19:22:26;21.20;92.50
3268;DHT22;1646;52.450;13.326;2023-07-20T19:27:25;21.10;92.80
3268;DHT22;1646;52.450;13.326;2023-07-20T19:32:27;21.00;92.80
3268;DHT22;1646;52.450;13.326;2023-07-20T19:37:25;20.90;93.00
3268;DHT22;1646;52.450;13.326;2023-07-20T19:42:23;20.80;93.20
3268;DHT22;1646;52.450;13.326;2023-07-20T19:47:22;20.80;93.50
3268;DHT22;1646;52.450;13.326;2023-07-20T19:52:22;20.80;93.80
3268;DHT22;1646;52.450;13.326;2023-07-20T19:57:20;20.70;93.80
3268;DHT22;1646;52.450;13.326;2023-07-20T20:02:22;20.60;94.40
3268;DHT22;1646;52.450;13.326;2023-07-20T20:07:22;20.50;94.10
3268;DHT22;1646;52.450;13.326;2023-07-20T20:12:20;20.40;94.30
3268;DHT22;1646;52.450;13.326;2023-07-20T20:17:21;20.30;94.80
3268;DHT22;1646;52.450;13.326;2023-07-20T20:22:22;20.30;95.60
3268;DHT22;1646;52.450;13.326;2023-07-20T20:27:38;20.20;95.70
3268;DHT22;1646;52.450;13.326;2023-07-20T20:32:37;20.10;95.60
3268;DHT22;1646;52.450;13.326;2023-07-20T20:37:40;20.00;96.00
3268;DHT22;1646;52.450;13.326;2023-07-20T20:42:39;20.00;96.50
3268;DHT22;1646;52.450;13.326;2023-07-20T20:47:37;19.90;96.60
3268;DHT22;1646;52.450;13.326;2023-07-20T20:52:36;19.80;96.90
3268;DHT22;1646;52.450;13.326;2023-07-20T20:57:36;19.80;97.80
3268;DHT22;1646;52.450;13.326;2023-07-20T21:02:34;19.70;97.80
3268;DHT22;1646;52.450;13.326;2023-07-20T21:07:33;19.60;98.40
3268;DHT22;1646;52.450;13.326;2023-07-20T21:12:31;19.50;98.40
3268;DHT22;1646;52.450;13.326;2023-07-20T21:17:31;19.40;99.30
3268;DHT22;1646;52.450;13.326;2023-07-20T21:22:30;19.30;99.20
3268;DHT22;1646;52.450;13.326;2023-07-20T21:27:28;19.20;99.70
3268;DHT22;1646;52.450;13.326;2023-07-20T21:32:27;19.20;99.90
3268;DHT22;1646;52.450;13.326;2023-07-20T21:37:26;19.10;99.90
3268;DHT22;1646;52.450;13.326;2023-07-20T21:42:24;19.10;99.90
3268;DHT22;1646;52.450;13.326;2023-07-20T21:47:23;19.00;99.90
3268;DHT22;1646;52.450;13.326;2023-07-20T21:52:22;19.00;99.90
3268;DHT22;1646;52.450;13.326;2023-07-20T21:57:22;18.90;99.90
3268;DHT22;1646;52.450;13.326;2023-07-20T22:02:20;18.90;99.90
3268;DHT22;1646;52.450;13.326;2023-07-20T22:07:18;18.80;99.90
3268;DHT22;1646;52.450;13.326;2023-07-20T22:12:17;18.70;99.90
3268;DHT22;1646;52.450;13.326;2023-07-20T22:17:17;18.70;99.90
3268;DHT22;1646;52.450;13.326;2023-07-20T22:22:17;18.50;99.90
3268;DHT22;1646;52.450;13.326;2023-07-20T22:27:16;18.50;99.90
3268;DHT22;1646;52.450;13.326;2023-07-20T22:32:14;18.40;99.90
3268;DHT22;1646;52.450;13.326;2023-07-20T22:37:13;18.30;99.90
3268;DHT22;1646;52.450;13.326;2023-07-20T22:42:12;18.30;99.90
3268;DHT22;1646;52.450;13.326;2023-07-20T22:47:10;18.20;99.90
3268;DHT22;1646;52.450;13.326;2023-07-20T22:52:08;18.20;99.90
3268;DHT22;1646;52.450;13.326;2023-07-20T22:57:09;18.10;99.90
3268;DHT22;1646;52.450;13.326;2023-07-20T23:02:07;18.00;99.90
3268;DHT22;1646;52.450;13.326;2023-07-20T23:07:06;18.00;99.90
3268;DHT22;1646;52.450;13.326;2023-07-20T23:12:05;17.90;99.90
3268;DHT22;1646;52.450;13.326;2023-07-20T23:17:05;17.80;99.90
3268;DHT22;1646;52.450;13.326;2023-07-20T23:22:05;17.80;99.90
3268;DHT22;1646;52.450;13.326;2023-07-20T23:27:05;17.70;99.90
3268;DHT22;1646;52.450;13.326;2023-07-20T23:32:05;17.70;99.90
3268;DHT22;1646;52.450;13.326;2023-07-20T23:37:04;17.70;99.90
3268;DHT22;1646;52.450;13.326;2023-07-20T23:42:03;17.60;99.90
3268;DHT22;1646;52.450;13.326;2023-07-20T23:47:06;17.60;99.90
3268;DHT22;1646;52.450;13.326;2023-07-20T23:52:06;17.50;99.90
3268;DHT22;1646;52.450;13.326;2023-07-20T23:57:05;17.50;99.90
